Latest Weather Observations for Cowley Beach (Defence)

IDQ60801

Issued at 10:02 pm EST Thursday 22 June 2017 (issued every 30 minutes, with the page automatically refreshed every 10 minutes)

About weather observations | Map of weather stations | Latest weather observations for QLD | Other Formats
Station Details ID: 032194 Name: COWLEY BEACH (DEFENCE) Lat: -17.69 Lon: 146.11 Height: 17.0 m
Data from the previous 72 hours. | See also: Recent months for locations in Queensland
Date/Time
EST
Temp
°C
App
Temp
°C
Dew
Point
°C
Rel
Hum
%
Delta-T
°C
Wind Press
QNH
hPa
Press
MSL
hPa
Rain since
9am
mm
Dir  Spd
km/h
Gust
km/h
Spd
kts
Gust
kts
22/10:00pm 22.2 23.9 19.4 84 1.8 SSE 9 15 5 8 - - 0.4
22/09:30pm 22.0 24.0 19.2 84 1.8 SE 7 13 4 7 - - 0.4
22/09:00pm 21.9 23.7 19.5 86 1.5 SSE 9 17 5 9 - - 0.4
22/08:30pm 22.1 23.5 19.5 85 1.7 SSE 11 20 6 11 - - 0.4
22/08:00pm 22.1 23.5 19.5 85 1.7 SSE 11 19 6 10 - - 0.4
22/07:30pm 22.0 23.4 19.5 86 1.6 SSE 11 19 6 10 - - 0.4
22/07:00pm 21.5 23.0 19.8 90 1.1 SSE 11 22 6 12 - - 0.4
22/06:30pm 21.2 22.5 19.3 89 1.2 S 11 17 6 9 - - 0.2
22/06:00pm 21.8 23.0 19.0 84 1.8 S 11 20 6 11 - - 0.0
22/05:30pm 22.0 22.7 18.8 82 2.0 S 13 22 7 12 - - 0.0
22/05:00pm 22.0 23.0 18.6 81 2.1 S 11 17 6 9 - - 0.0
22/04:30pm 22.4 23.5 18.8 80 2.3 S 11 20 6 11 - - 0.0
22/04:00pm 22.7 23.8 18.9 79 2.4 S 11 19 6 10 - - 0.0
22/03:30pm 22.5 23.4 18.5 78 2.5 S 11 19 6 10 - - 0.0
22/03:00pm 22.1 22.6 18.3 79 2.4 S 13 22 7 12 - - 0.0
22/02:30pm 23.1 24.4 19.3 79 2.4 S 11 20 6 11 - - 0.0
22/02:00pm 22.3 22.7 18.1 77 2.6 S 13 24 7 13 - - 0.0
22/01:30pm 21.8 23.3 19.0 84 1.8 S 9 17 5 9 - - 0.0
22/01:00pm 21.8 22.6 18.2 80 2.2 S 11 19 6 10 - - 0.0
22/12:30pm 21.8 22.1 18.0 79 2.4 SSE 13 22 7 12 - - 0.0
22/12:00pm 22.3 22.1 17.7 75 2.9 S 15 24 8 13 - - 0.0
22/11:30am 22.1 22.5 18.1 78 2.5 S 13 22 7 12 - - 0.0
22/11:00am 22.1 22.5 18.1 78 2.5 S 13 24 7 13 - - 0.0
22/10:30am 22.6 22.7 18.4 77 2.6 S 15 26 8 14 - - 0.0
22/10:00am 22.3 22.9 18.7 80 2.3 S 13 20 7 11 - - 0.0
22/09:30am 22.2 22.8 18.6 80 2.3 S 13 20 7 11 - - 0.0
22/09:00am 22.9 23.9 18.7 77 2.7 SSE 11 19 6 10 - - 0.2
22/08:30am 23.5 24.6 17.0 67 4.0 SE 7 15 4 8 - - 0.2
22/08:00am 22.8 23.9 16.6 68 3.8 SE 6 11 3 6 - - 0.2
22/07:30am 22.0 22.8 16.3 70 3.5 SE 7 15 4 8 - - 0.2
22/07:00am 21.6 22.6 16.8 74 2.9 SE 7 13 4 7 - - 0.2
22/06:30am 21.7 22.6 16.6 73 3.1 SE 7 15 4 8 - - 0.2
22/06:00am 21.6 22.2 15.7 69 3.5 SE 7 17 4 9 - - 0.2
22/05:30am 21.8 22.4 16.7 73 3.1 SE 9 17 5 9 - - 0.2
22/05:00am 21.9 22.4 16.6 72 3.2 SE 9 17 5 9 - - 0.2
22/04:30am 22.2 22.5 17.1 73 3.1 ESE 11 19 6 10 - - 0.2
22/04:00am 22.1 22.2 16.6 71 3.3 ESE 11 17 6 9 - - 0.2
22/03:30am 22.0 22.2 16.7 72 3.2 ESE 11 17 6 9 - - 0.2
22/03:00am 21.9 22.5 16.8 73 3.1 SE 9 19 5 10 - - 0.2
22/02:30am 22.1 22.8 17.0 73 3.1 ESE 9 15 5 8 - - 0.2
22/02:00am 22.0 23.0 17.8 77 2.6 ESE 9 17 5 9 - - 0.2
22/01:30am 22.2 22.8 17.8 76 2.7 ESE 11 22 6 12 - - 0.2
22/01:00am 22.3 23.4 18.1 77 2.6 ESE 9 15 5 8 - - 0.2
22/12:30am 22.4 23.4 17.8 75 2.9 ESE 9 15 5 8 - - 0.2
22/12:00am 22.4 23.1 18.0 76 2.7 ESE 11 17 6 9 - - 0.2
 
Date/Time
EST
Temp
°C
App
Temp
°C
Dew
Point
°C
Rel
Hum
%
Delta-T
°C
Wind Press
QNH
hPa
Press
MSL
hPa
Rain since
9am
mm
Dir  Spd
km/h
Gust
km/h
Spd
kts
Gust
kts
21/11:30pm 22.5 23.1 17.8 75 2.9 ESE 11 19 6 10 - - 0.2
21/11:00pm 22.4 22.9 17.5 74 3.0 ESE 11 20 6 11 - - 0.2
21/10:30pm 22.3 23.1 18.1 77 2.6 ESE 11 17 6 9 - - 0.2
21/10:00pm 22.4 23.1 18.0 76 2.7 ESE 11 17 6 9 - - 0.2
21/09:30pm 22.2 23.0 18.2 78 2.5 SE 11 20 6 11 - - 0.2
21/09:00pm 22.2 23.0 18.2 78 2.5 SE 11 19 6 10 - - 0.2
21/08:30pm 22.4 22.4 18.2 77 2.6 SE 15 26 8 14 - - 0.2
21/08:00pm 22.6 23.1 18.4 77 2.6 ESE 13 22 7 12 - - 0.2
21/07:30pm 22.7 22.7 18.0 75 2.9 SE 15 22 8 12 - - 0.2
21/07:00pm 22.7 23.6 18.3 76 2.8 SE 11 19 6 10 - - 0.2
21/06:30pm 22.7 23.4 18.0 75 2.9 ESE 11 20 6 11 - - 0.2
21/06:00pm 22.7 24.0 18.5 77 2.6 SE 9 17 5 9 - - 0.2
21/05:30pm 22.7 23.9 18.3 76 2.8 SE 9 17 5 9 - - 0.2
21/05:00pm 22.9 24.2 18.4 76 2.8 SE 9 19 5 10 - - 0.2
21/04:30pm 22.7 24.0 18.5 77 2.6 SE 9 20 5 11 - - 0.2
21/04:00pm 22.4 23.6 19.8 85 1.7 S 13 20 7 11 - - 0.2
21/03:30pm 22.2 23.3 19.6 85 1.7 S 13 20 7 11 - - 0.2
21/03:00pm 22.1 23.0 19.3 84 1.8 S 13 24 7 13 - - 0.2
21/02:30pm 22.1 22.6 19.3 84 1.8 S 15 24 8 13 - - 0.2
21/02:00pm 22.1 22.7 19.5 85 1.7 S 15 22 8 12 - - 0.2
21/01:30pm 21.7 22.7 19.4 87 1.5 S 13 24 7 13 - - 0.2
21/01:00pm 21.3 21.9 19.4 89 1.2 S 15 26 8 14 - - 0.2
21/12:30pm 21.9 22.2 19.5 86 1.5 S 17 26 9 14 - - 0.0
21/12:00pm 22.1 22.7 19.5 85 1.7 S 15 26 8 14 - - 0.0
21/11:30am 21.6 22.1 19.2 86 1.5 S 15 24 8 13 - - 0.0
21/11:00am 21.9 22.7 19.8 88 1.3 S 15 20 8 11 - - 0.0
21/10:30am 21.6 22.5 19.3 87 1.5 S 13 24 7 13 - - 0.0
21/10:00am 21.9 22.9 19.5 86 1.5 S 13 22 7 12 - - 0.0
21/09:30am 21.5 22.6 19.6 89 1.2 S 13 24 7 13 - - 0.0
21/09:00am 21.2 22.8 20.0 93 0.8 SSE 11 22 6 12 - - 1.8
21/08:30am 21.7 22.8 19.6 88 1.3 SSE 13 20 7 11 - - 1.6
21/08:00am 21.5 23.0 19.8 90 1.1 SSE 11 19 6 10 - - 1.6
21/07:30am 22.0 23.7 19.4 85 1.7 SE 9 17 5 9 - - 1.4
21/07:00am 21.5 23.0 19.8 90 1.1 SSE 11 19 6 10 - - 1.4
21/06:30am 20.9 22.7 19.6 92 0.8 SSE 9 17 5 9 - - 1.4
21/06:00am 21.4 23.1 19.3 88 1.3 SE 9 17 5 9 - - 0.8
21/05:30am 21.7 22.8 18.9 84 1.8 SE 11 22 6 12 - - 0.6
21/05:00am 21.5 23.1 19.1 86 1.5 SE 9 17 5 9 - - 0.6
21/04:30am 22.2 23.7 19.0 82 2.0 SSE 9 19 5 10 - - 0.0
21/04:00am 22.5 24.6 19.3 82 2.0 SE 7 15 4 8 - - 0.0
21/03:30am 22.6 23.9 18.4 77 2.6 SE 9 17 5 9 - - 0.0
21/03:00am 20.9 23.0 19.4 91 1.0 S 7 13 4 7 - - 0.0
21/02:30am 19.8 21.2 17.9 89 1.2 WSW 7 13 4 7 - - 0.0
21/02:00am 19.6 21.1 17.7 89 1.2 SW 6 11 3 6 - - 0.0
21/01:30am 19.4 20.8 17.7 90 1.0 SW 7 9 4 5 - - 0.0
21/01:00am 19.3 20.8 17.6 90 1.0 SW 6 9 3 5 - - 0.0
21/12:30am 19.1 20.6 17.6 91 0.9 SW 6 9 3 5 - - 0.0
21/12:00am 19.2 20.6 17.7 91 0.9 SW 7 11 4 6 - - 0.0
 
Date/Time
EST
Temp
°C
App
Temp
°C
Dew
Point
°C
Rel
Hum
%
Delta-T
°C
Wind Press
QNH
hPa
Press
MSL
hPa
Rain since
9am
mm
Dir  Spd
km/h
Gust
km/h
Spd
kts
Gust
kts
20/11:30pm 19.0 20.3 17.1 89 1.2 SW 6 11 3 6 - - 0.0
20/11:00pm 19.1 20.2 17.1 88 1.2 SW 7 9 4 5 - - 0.0
20/10:30pm 19.4 20.7 17.2 87 1.3 SW 6 11 3 6 - - 0.0
20/10:00pm 19.3 20.7 17.3 88 1.2 SW 6 9 3 5 - - 0.0
20/09:30pm 19.3 21.0 17.1 87 1.3 SW 4 9 2 5 - - 0.0
20/09:00pm 19.1 20.4 17.1 88 1.2 SW 6 9 3 5 - - 0.0
20/08:30pm 19.7 20.8 17.1 85 1.6 SW 7 11 4 6 - - 0.0
20/08:00pm 20.1 21.4 17.1 83 1.8 SW 6 9 3 5 - - 0.0
20/07:30pm 21.8 22.9 18.0 79 2.4 S 9 17 5 9 - - 0.0
20/07:00pm 21.8 22.8 17.8 78 2.5 S 9 15 5 8 - - 0.0
20/06:30pm 21.7 22.7 17.7 78 2.5 S 9 17 5 9 - - 0.0
20/06:00pm 21.8 23.0 18.2 80 2.2 S 9 15 5 8 - - 0.0
20/05:30pm 22.0 22.7 18.0 78 2.5 SSE 11 17 6 9 - - 0.0
20/05:00pm 22.4 23.4 17.8 75 2.9 SSE 9 17 5 9 - - 0.0
20/04:30pm 22.6 23.3 17.9 75 2.9 SSE 11 20 6 11 - - 0.0
20/04:00pm 22.9 23.7 18.2 75 2.9 SSE 11 17 6 9 - - 0.0
20/03:30pm 22.4 23.2 18.2 77 2.6 S 11 19 6 10 - - 0.0
20/03:00pm 22.9 23.6 18.0 74 3.1 S 11 17 6 9 - - 0.0
20/02:30pm 23.4 24.3 18.3 73 3.2 S 11 17 6 9 - - 0.0
20/02:00pm 23.5 24.3 18.2 72 3.3 S 11 20 6 11 - - 0.0
20/01:30pm 23.8 24.5 18.0 70 3.6 S 11 20 6 11 - - 0.0
20/01:00pm 23.5 24.3 18.2 72 3.3 S 11 19 6 10 - - 0.0
20/12:30pm 22.7 23.3 17.8 74 3.0 S 11 19 6 10 - - 0.0
20/12:00pm 23.1 23.4 18.0 73 3.2 S 13 20 7 11 - - 0.0
20/11:30am 23.4 24.0 18.5 74 3.1 S 13 20 7 11 - - 0.0
20/11:00am 23.4 24.0 18.7 75 3.0 S 13 20 7 11 - - 0.0
20/10:30am 23.2 24.2 18.7 76 2.8 S 11 20 6 11 - - 0.0
20/10:00am 23.0 23.9 18.5 76 2.8 S 11 17 6 9 - - 0.0
20/09:30am 22.2 24.0 18.8 81 2.1 S 7 15 4 8 - - 0.0
20/09:00am 21.6 23.4 18.4 82 2.0 SW 6 11 3 6 - - 0.0
20/08:30am 21.6 23.3 18.0 80 2.2 S 6 19 3 10 - - 0.0
20/08:00am 20.3 22.2 17.7 85 1.6 SSW 4 7 2 4 - - 0.0
20/07:30am 22.0 22.9 16.5 71 3.3 SE 7 15 4 8 - - 0.0
20/07:00am 21.7 22.4 16.0 70 3.4 SE 7 15 4 8 - - 0.0
20/06:30am 21.7 22.6 16.6 73 3.1 SE 7 15 4 8 - - 0.0
20/06:00am 20.0 21.0 16.8 82 1.9 SSE 7 17 4 9 - - 0.0
20/05:30am 18.1 19.6 16.6 91 0.9 S 4 9 2 5 - - 0.0
20/05:00am 17.8 18.7 16.5 92 0.8 SW 7 11 4 6 - - 0.0
20/04:30am 18.0 18.9 16.7 92 0.8 SW 7 9 4 5 - - 0.0
20/04:00am 17.5 18.4 16.5 94 0.6 SW 7 11 4 6 - - 0.0
20/03:30am 17.3 19.4 16.3 94 0.6 CALM 0 6 0 3 - - 0.0
20/03:00am 17.6 19.9 16.8 95 0.5 CALM 0 0 0 0 - - 0.0
20/02:30am 17.7 19.2 16.7 94 0.6 WSW 4 7 2 4 - - 0.0
20/02:00am 17.8 19.8 17.0 95 0.5 W 2 4 1 2 - - 0.0
20/01:30am 17.6 19.1 16.6 94 0.6 WSW 4 6 2 3 - - 0.0
20/01:00am 17.9 18.9 16.8 93 0.7 SW 7 9 4 5 - - 0.0
20/12:30am 18.3 19.4 17.1 93 0.7 SW 7 11 4 6 - - 0.0
20/12:00am 18.5 19.7 17.3 93 0.7 SW 7 9 4 5 - - 0.0
 
Date/Time
EST
Temp
°C
App
Temp
°C
Dew
Point
°C
Rel
Hum
%
Delta-T
°C
Wind Press
QNH
hPa
Press
MSL
hPa
Rain since
9am
mm
Dir  Spd
km/h
Gust
km/h
Spd
kts
Gust
kts
19/11:30pm 18.6 19.8 17.4 93 0.7 SW 7 9 4 5 - - 0.0
19/11:00pm 18.3 19.5 17.3 94 0.6 SW 7 9 4 5 - - 0.0
19/10:30pm 18.3 19.5 17.3 94 0.6 SW 7 11 4 6 - - 0.0

Other Formats:

Comma delimited format used in spreadsheet applications
http://www.bom.gov.au/fwo/IDQ60801/IDQ60801.99218.axf

JavaScript Object Notation format (JSON) in row-major order
http://www.bom.gov.au/fwo/IDQ60801/IDQ60801.99218.json